Time;durP1;ratioP1;P1;durP2;ratioP2;P2;SDS_P1;SDS_P2;PMS_P1;PMS_P2;Temp;Humidity;BMP_temperature;BMP_pressure;BME280_temperature;BME280_humidity;BME280_pressure;Samples;Min_cycle;Max_cycle;Signal;HPM_P1;HPM_P2
2024/01/09 00:02:05;;;;;;;5.38;2.53;;;-2.20;99.90;;;;;;6240285;23;20054;-78
2024/01/09 00:04:30;;;;;;;5.55;2.92;;;-2.20;99.90;;;;;;6238311;23;20091;-78
2024/01/09 00:06:56;;;;;;;5.10;2.70;;;-2.20;99.90;;;;;;6238256;23;20047;-78
2024/01/09 00:09:22;;;;;;;4.43;2.35;;;-2.20;99.90;;;;;;6238083;23;20016;-78
2024/01/09 00:11:47;;;;;;;5.33;2.87;;;-2.20;99.90;;;;;;6212379;23;20016;-78
2024/01/09 00:14:15;;;;;;;5.57;2.85;;;-2.20;99.90;;;;;;6212837;23;20235;-78
2024/01/09 00:16:41;;;;;;;5.82;2.50;;;-2.30;99.90;;;;;;6238316;23;20083;-79
2024/01/09 00:19:06;;;;;;;4.77;2.63;;;-2.30;99.90;;;;;;6238263;23;20044;-78
2024/01/09 00:21:32;;;;;;;4.32;2.47;;;-2.30;99.90;;;;;;6237125;23;20583;-78
2024/01/09 00:23:58;;;;;;;5.22;2.45;;;-2.30;99.90;;;;;;6237160;23;20016;-78
2024/01/09 00:26:23;;;;;;;5.93;3.40;;;-2.30;99.90;;;;;;6236959;23;20016;-78
2024/01/09 00:28:49;;;;;;;7.13;2.83;;;-2.30;99.90;;;;;;6239916;23;20227;-78
2024/01/09 00:31:14;;;;;;;4.60;2.67;;;-2.30;99.90;;;;;;6239507;23;20040;-79
2024/01/09 00:33:40;;;;;;;5.28;2.72;;;-2.40;99.90;;;;;;6238262;23;20383;-78
2024/01/09 00:36:06;;;;;;;5.15;2.90;;;-2.40;99.90;;;;;;6238050;23;20225;-79
2024/01/09 00:38:32;;;;;;;5.63;3.00;;;-2.40;99.90;;;;;;6238784;23;20471;-79
2024/01/09 00:40:57;;;;;;;7.45;2.97;;;-2.40;99.90;;;;;;6211996;23;20019;-79
2024/01/09 00:43:23;;;;;;;9.90;3.57;;;-2.40;99.90;;;;;;6238171;23;20062;-78
2024/01/09 00:45:49;;;;;;;4.88;2.78;;;-2.40;99.90;;;;;;6238261;23;20470;-79
2024/01/09 00:48:14;;;;;;;4.63;2.47;;;-2.50;99.90;;;;;;6239834;23;20077;-79
2024/01/09 00:50:40;;;;;;;6.22;2.80;;;-2.50;99.90;;;;;;6242539;22;20836;-79
2024/01/09 00:53:06;;;;;;;6.32;2.90;;;-2.50;99.90;;;;;;6242029;22;20411;-79
2024/01/09 00:55:31;;;;;;;5.93;2.73;;;-2.50;99.90;;;;;;6217960;22;20034;-79
2024/01/09 00:57:57;;;;;;;6.53;2.73;;;-2.50;99.90;;;;;;6269897;22;20258;-79
2024/01/09 01:00:23;;;;;;;7.03;3.40;;;-2.50;99.90;;;;;;6242883;22;20019;-80
2024/01/09 01:02:48;;;;;;;5.60;3.08;;;-2.50;99.90;;;;;;6242154;22;20039;-79
2024/01/09 01:05:17;;;;;;;4.93;2.40;;;-2.50;99.90;;;;;;6242955;22;20016;-79
2024/01/09 01:07:43;;;;;;;6.28;2.72;;;-2.60;99.90;;;;;;6242176;22;20073;-79
2024/01/09 01:10:13;;;;;;;7.10;2.65;;;-2.60;99.90;;;;;;6242667;22;20019;-79
2024/01/09 01:12:39;;;;;;;6.95;2.40;;;-2.60;99.90;;;;;;6216457;22;20027;-77
2024/01/09 01:15:05;;;;;;;5.13;2.65;;;-2.60;99.90;;;;;;6243525;22;20007;-78
2024/01/09 01:17:31;;;;;;;5.10;2.65;;;-2.70;99.90;;;;;;6270202;22;20138;-77
2024/01/09 01:19:57;;;;;;;7.30;2.80;;;-2.70;99.90;;;;;;6242830;22;20328;-78
2024/01/09 01:22:23;;;;;;;4.53;2.65;;;-2.70;99.90;;;;;;6269165;22;20075;-78
2024/01/09 01:24:48;;;;;;;4.95;2.75;;;-2.70;99.90;;;;;;6242642;22;20406;-78
2024/01/09 01:27:14;;;;;;;5.53;2.60;;;-2.80;99.90;;;;;;6242366;22;20142;-78
2024/01/09 01:29:39;;;;;;;6.17;2.70;;;-2.80;99.90;;;;;;6243118;22;20610;-79
2024/01/09 01:32:09;;;;;;;6.95;2.92;;;-2.80;99.90;;;;;;6270040;22;20019;-78
2024/01/09 01:34:35;;;;;;;6.88;3.22;;;-2.80;99.90;;;;;;6242956;22;20115;-78
2024/01/09 01:37:01;;;;;;;5.18;2.72;;;-2.80;99.90;;;;;;6241994;22;20091;-78
2024/01/09 01:39:26;;;;;;;5.13;2.72;;;-2.80;99.90;;;;;;6244690;22;20018;-78
2024/01/09 01:41:52;;;;;;;5.55;2.70;;;-2.80;99.90;;;;;;6272006;22;20014;-78
2024/01/09 01:44:18;;;;;;;5.65;2.75;;;-2.80;99.90;;;;;;6244438;22;20049;-79
2024/01/09 01:46:46;;;;;;;6.50;2.75;;;-2.80;99.90;;;;;;6272014;22;20015;-78
2024/01/09 01:49:14;;;;;;;4.75;2.70;;;-2.80;99.90;;;;;;6244662;22;20061;-78
2024/01/09 01:51:41;;;;;;;6.15;2.70;;;-2.90;99.90;;;;;;6247615;22;20345;-78
2024/01/09 01:54:07;;;;;;;5.00;2.45;;;-2.90;99.90;;;;;;6239149;23;20016;-78
2024/01/09 01:56:34;;;;;;;5.30;2.90;;;-2.90;99.90;;;;;;6240888;23;20023;-79
2024/01/09 01:59:01;;;;;;;6.68;3.10;;;-2.90;99.90;;;;;;6239376;23;20398;-79
2024/01/09 02:01:28;;;;;;;8.90;3.13;;;-2.90;99.90;;;;;;6239359;23;20023;-78
2024/01/09 02:03:54;;;;;;;4.80;2.80;;;-2.90;99.90;;;;;;6240694;23;20042;-78
2024/01/09 02:06:21;;;;;;;5.97;3.28;;;-2.90;99.90;;;;;;6238198;23;20012;-79
2024/01/09 02:08:48;;;;;;;5.20;2.92;;;-2.90;99.90;;;;;;6240861;23;20097;-78
2024/01/09 02:11:14;;;;;;;7.28;2.60;;;-3.00;99.90;;;;;;6238520;23;20289;-78
2024/01/09 02:13:40;;;;;;;6.82;2.72;;;-3.00;99.90;;;;;;6213173;23;20058;-78
2024/01/09 02:16:05;;;;;;;6.50;3.13;;;-3.00;99.90;;;;;;6240510;23;20019;-78
2024/01/09 02:18:31;;;;;;;5.55;2.45;;;-3.00;99.90;;;;;;6237859;23;20023;-78
2024/01/09 02:20:57;;;;;;;5.60;2.83;;;-3.00;99.90;;;;;;6212803;23;20028;-78
2024/01/09 02:23:22;;;;;;;5.72;2.60;;;-3.00;99.90;;;;;;6239823;23;20008;-78
2024/01/09 02:25:49;;;;;;;6.30;2.60;;;-3.00;99.90;;;;;;6237248;23;20314;-78
2024/01/09 02:28:28;;;;;;;4.25;2.70;;;-3.00;99.90;;;;;;6237672;23;20243;-78
2024/01/09 02:30:55;;;;;;;4.60;2.55;;;-3.10;99.90;;;;;;6238558;23;20016;-78
2024/01/09 02:33:20;;;;;;;;;;;-3.10;99.90;;;;;;6241575;23;20016;-78
2024/01/09 02:35:46;;;;;;;7.60;2.47;;;-3.10;99.90;;;;;;6238022;23;19960;-78
2024/01/09 02:38:12;;;;;;;5.22;2.60;;;-3.10;99.90;;;;;;6213974;23;20028;-78
2024/01/09 02:40:38;;;;;;;4.33;2.50;;;-3.10;99.90;;;;;;6238614;23;20020;-78
2024/01/09 02:43:05;;;;;;;6.13;2.67;;;-3.10;99.90;;;;;;6240750;23;20231;-78
2024/01/09 02:45:30;;;;;;;4.55;2.40;;;-3.10;99.90;;;;;;6239547;23;20023;-78
2024/01/09 02:47:56;;;;;;;5.50;2.78;;;-3.10;99.90;;;;;;6213792;23;20012;-78
2024/01/09 02:50:21;;;;;;;5.57;2.65;;;-3.20;99.90;;;;;;6238029;23;20047;-78
2024/01/09 02:52:47;;;;;;;3.47;2.20;;;-3.20;99.90;;;;;;6239385;23;20024;-78
2024/01/09 02:55:13;;;;;;;5.25;2.20;;;-3.30;99.90;;;;;;6241001;23;20055;-78
2024/01/09 02:57:40;;;;;;;5.03;2.72;;;-3.30;99.90;;;;;;6238336;23;20020;-79
2024/01/09 03:00:10;;;;;;;6.70;2.60;;;-3.30;99.90;;;;;;6239210;23;20101;-78
2024/01/09 03:02:36;;;;;;;6.35;2.83;;;-3.30;99.90;;;;;;6238902;23;20349;-78
2024/01/09 03:05:06;;;;;;;;;;;-3.30;99.90;;;;;;6237992;23;20022;-78
2024/01/09 03:07:33;;;;;;;5.60;2.53;;;-3.30;99.90;;;;;;6239938;23;19922;-79
2024/01/09 03:09:58;;;;;;;5.10;2.50;;;-3.40;99.90;;;;;;6213369;23;20146;-79
2024/01/09 03:12:24;;;;;;;7.25;3.40;;;-3.40;99.90;;;;;;6237916;23;20055;-79
2024/01/09 03:14:50;;;;;;;4.13;2.40;;;-3.30;99.90;;;;;;6240163;23;20008;-79
2024/01/09 03:17:15;;;;;;;6.95;3.08;;;-3.30;99.90;;;;;;6238568;23;20023;-78
2024/01/09 03:19:43;;;;;;;4.18;2.65;;;-3.40;99.90;;;;;;6238061;23;20044;-79
2024/01/09 03:22:08;;;;;;;4.75;2.88;;;-3.30;99.90;;;;;;6238413;23;20020;-79
2024/01/09 03:24:34;;;;;;;5.07;2.08;;;-3.40;99.90;;;;;;6237744;23;20023;-79
2024/01/09 03:27:00;;;;;;;7.00;2.33;;;-3.40;99.90;;;;;;6236507;23;20463;-79
2024/01/09 03:29:25;;;;;;;5.45;2.90;;;-3.40;99.90;;;;;;6237071;23;20062;-79
2024/01/09 03:31:51;;;;;;;5.23;2.90;;;-3.40;99.90;;;;;;6240226;23;20035;-78
2024/01/09 03:34:16;;;;;;;4.30;2.50;;;-3.40;99.90;;;;;;6237674;23;20254;-79
2024/01/09 03:36:45;;;;;;;4.88;2.80;;;-3.50;99.90;;;;;;6238218;23;20039;-78
2024/01/09 03:39:14;;;;;;;5.13;2.60;;;-3.40;99.90;;;;;;6238416;23;20020;-79
2024/01/09 03:41:41;;;;;;;4.57;2.78;;;-3.50;99.90;;;;;;6238335;23;20008;-78
2024/01/09 03:44:06;;;;;;;4.57;2.47;;;-3.50;99.90;;;;;;6237921;23;20052;-78
2024/01/09 03:46:32;;;;;;;5.95;2.28;;;-3.50;99.90;;;;;;6240267;23;20027;-77
2024/01/09 03:48:58;;;;;;;5.37;2.80;;;-3.60;99.90;;;;;;6237793;23;20020;-78
2024/01/09 03:51:23;;;;;;;5.28;2.85;;;-3.60;99.90;;;;;;6237830;23;20263;-78
2024/01/09 03:53:49;;;;;;;4.97;2.78;;;-3.60;99.90;;;;;;6238087;23;20326;-79
2024/01/09 03:56:14;;;;;;;3.87;2.50;;;-3.60;99.90;;;;;;6238732;23;20400;-78
2024/01/09 03:58:40;;;;;;;5.67;2.73;;;-3.70;99.90;;;;;;6213011;23;20263;-78
2024/01/09 04:01:06;;;;;;;6.45;3.03;;;-3.70;99.90;;;;;;6211961;23;20016;-79
2024/01/09 04:03:31;;;;;;;5.75;2.50;;;-3.70;99.90;;;;;;6237485;23;20020;-78
2024/01/09 04:05:57;;;;;;;5.53;2.60;;;-3.70;99.90;;;;;;6236854;23;20471;-79
2024/01/09 04:08:23;;;;;;;5.55;2.67;;;-3.70;99.90;;;;;;6238139;23;20020;-78
2024/01/09 04:10:48;;;;;;;5.93;2.65;;;-3.70;99.90;;;;;;6212498;23;20016;-79
2024/01/09 04:13:14;;;;;;;5.70;2.93;;;-3.60;99.90;;;;;;6213087;23;20399;-79
2024/01/09 04:15:40;;;;;;;5.10;2.60;;;-3.70;99.90;;;;;;6239913;23;20698;-78
2024/01/09 04:18:06;;;;;;;6.15;2.63;;;-3.70;99.90;;;;;;6237898;23;20334;-78
2024/01/09 04:20:32;;;;;;;4.60;2.33;;;-3.70;99.90;;;;;;6240423;23;20134;-79
2024/01/09 04:22:57;;;;;;;5.10;2.60;;;-3.70;99.90;;;;;;6240467;23;20063;-79
2024/01/09 04:25:23;;;;;;;3.83;2.50;;;-3.70;99.90;;;;;;6240580;23;20294;-78
2024/01/09 04:27:49;;;;;;;7.25;3.40;;;-3.80;99.90;;;;;;6212798;23;20012;-78
2024/01/09 04:30:14;;;;;;;6.25;3.28;;;-3.80;99.90;;;;;;6238134;23;20458;-78
2024/01/09 04:32:40;;;;;;;6.07;3.08;;;-3.80;99.90;;;;;;6238497;23;20091;-78
2024/01/09 04:35:06;;;;;;;6.32;2.90;;;-3.80;99.90;;;;;;6238216;23;20016;-79
2024/01/09 04:37:31;;;;;;;4.93;2.70;;;-3.80;99.90;;;;;;6240142;23;20452;-78
2024/01/09 04:39:57;;;;;;;4.68;2.53;;;-3.80;99.90;;;;;;6240099;23;20062;-78
2024/01/09 04:42:23;;;;;;;4.22;2.50;;;-3.80;99.90;;;;;;6240016;23;20016;-78
2024/01/09 04:44:48;;;;;;;5.78;2.80;;;-3.80;99.90;;;;;;6238197;23;20652;-78
2024/01/09 04:47:15;;;;;;;7.13;2.97;;;-3.80;99.90;;;;;;6240164;23;20044;-79
2024/01/09 04:49:43;;;;;;;6.28;3.05;;;-3.80;99.90;;;;;;6238252;23;20015;-78
2024/01/09 04:52:08;;;;;;;6.97;3.03;;;-3.80;99.90;;;;;;6238254;23;20024;-79
2024/01/09 04:54:34;;;;;;;7.00;3.00;;;-3.80;99.90;;;;;;6237802;23;20020;-79
2024/01/09 04:57:00;;;;;;;4.53;2.55;;;-3.90;99.90;;;;;;6237485;23;20016;-79
2024/01/09 04:59:25;;;;;;;3.78;2.47;;;-3.90;99.90;;;;;;6237664;23;20020;-79
2024/01/09 05:01:51;;;;;;;4.97;2.88;;;-3.90;99.90;;;;;;6211591;23;20008;-78
2024/01/09 05:04:17;;;;;;;4.88;2.70;;;-4.00;99.90;;;;;;6237041;23;20008;-78
2024/01/09 05:06:42;;;;;;;3.72;2.13;;;-4.00;99.90;;;;;;6210744;23;20074;-78
2024/01/09 05:09:08;;;;;;;6.85;2.97;;;-4.00;99.90;;;;;;6237501;23;20353;-79
2024/01/09 05:11:33;;;;;;;4.10;2.63;;;-4.00;99.90;;;;;;6236994;23;20069;-79
2024/01/09 05:13:59;;;;;;;6.45;3.38;;;-4.00;99.90;;;;;;6238022;23;20008;-78
2024/01/09 05:16:27;;;;;;;7.43;3.33;;;-4.00;99.90;;;;;;6239596;23;20012;-78
2024/01/09 05:18:53;;;;;;;5.05;3.05;;;-4.00;99.90;;;;;;6241211;23;20109;-78
2024/01/09 05:21:18;;;;;;;6.05;3.13;;;-4.00;99.90;;;;;;6239001;23;20020;-79
2024/01/09 05:23:44;;;;;;;5.93;3.13;;;-4.00;99.90;;;;;;6214530;23;20484;-79
2024/01/09 05:26:10;;;;;;;5.60;3.00;;;-4.00;99.90;;;;;;6239118;23;20034;-78
2024/01/09 05:28:35;;;;;;;5.80;3.08;;;-4.10;99.90;;;;;;6239480;23;20051;-79
2024/01/09 05:31:02;;;;;;;5.13;2.95;;;-4.10;99.90;;;;;;6239230;23;20019;-79
2024/01/09 05:33:27;;;;;;;6.97;3.05;;;-4.00;99.90;;;;;;6237466;23;20023;-78
2024/01/09 05:35:53;;;;;;;5.93;2.72;;;-4.10;99.90;;;;;;6238805;23;20027;-79
2024/01/09 05:38:19;;;;;;;5.65;2.80;;;-4.10;99.90;;;;;;6236487;23;20069;-79
2024/01/09 05:40:46;;;;;;;5.75;3.00;;;-4.10;99.90;;;;;;6213378;23;20008;-79
2024/01/09 05:43:12;;;;;;;5.57;2.90;;;-4.10;99.90;;;;;;6236366;23;20012;-78
2024/01/09 05:45:38;;;;;;;4.53;2.40;;;-4.20;99.90;;;;;;6237721;23;20116;-78
2024/01/09 05:48:04;;;;;;;4.53;2.63;;;-4.20;99.90;;;;;;6242107;23;20016;-78
2024/01/09 05:50:29;;;;;;;6.03;2.95;;;-4.20;99.90;;;;;;6240593;22;20020;-78
2024/01/09 05:52:55;;;;;;;5.85;3.17;;;-4.20;99.90;;;;;;6240329;23;20035;-78
2024/01/09 05:55:21;;;;;;;4.65;2.70;;;-4.20;99.90;;;;;;6214281;23;20024;-81
2024/01/09 05:57:46;;;;;;;5.47;3.00;;;-4.10;99.90;;;;;;6238236;23;20020;-81
2024/01/09 06:00:12;;;;;;;4.63;3.03;;;-4.20;99.90;;;;;;6239426;23;20020;-81
2024/01/09 06:02:38;;;;;;;7.38;3.22;;;-4.20;99.90;;;;;;6238512;23;20024;-81
2024/01/09 06:05:04;;;;;;;5.63;3.00;;;-4.20;99.90;;;;;;6240010;23;20026;-81
2024/01/09 06:07:30;;;;;;;6.15;2.85;;;-4.20;99.90;;;;;;6238618;23;20024;-81
2024/01/09 06:09:56;;;;;;;6.88;3.28;;;-4.20;99.90;;;;;;6238823;23;20091;-82
2024/01/09 06:12:21;;;;;;;5.38;2.85;;;-4.20;99.90;;;;;;6237810;23;20016;-81
2024/01/09 06:14:47;;;;;;;6.63;2.97;;;-4.20;99.90;;;;;;6238851;23;20024;-81
2024/01/09 06:17:13;;;;;;;7.22;3.75;;;-4.20;99.90;;;;;;6238713;23;20016;-80
2024/01/09 06:19:38;;;;;;;4.57;2.83;;;-4.20;99.90;;;;;;6239073;23;20444;-80
2024/01/09 06:22:04;;;;;;;5.15;2.75;;;-4.20;99.90;;;;;;6240510;23;20019;-81
2024/01/09 06:24:30;;;;;;;6.63;3.05;;;-4.20;99.90;;;;;;6214663;23;20008;-80
2024/01/09 06:26:55;;;;;;;5.22;3.47;;;-4.20;99.90;;;;;;6238182;23;20008;-81
2024/01/09 06:29:22;;;;;;;5.60;3.07;;;-4.20;99.90;;;;;;6239415;23;20012;-82
2024/01/09 06:31:47;;;;;;;7.40;3.30;;;-4.20;99.90;;;;;;6239143;23;20246;-80
2024/01/09 06:34:13;;;;;;;6.13;3.60;;;-4.20;99.90;;;;;;6213758;23;20091;-79
2024/01/09 06:36:39;;;;;;;10.35;3.25;;;-4.30;99.90;;;;;;6238380;23;20016;-80
2024/01/09 06:39:04;;;;;;;6.50;2.90;;;-4.30;99.90;;;;;;6238513;23;20016;-80
2024/01/09 06:41:30;;;;;;;6.10;3.57;;;-4.30;99.90;;;;;;6237879;23;20020;-80
2024/01/09 06:43:55;;;;;;;6.67;3.40;;;-4.30;99.90;;;;;;6241182;23;20726;-80
2024/01/09 06:46:21;;;;;;;6.50;3.40;;;-4.30;99.90;;;;;;6239450;23;20058;-80
2024/01/09 06:48:47;;;;;;;6.30;3.43;;;-4.30;99.90;;;;;;6240973;23;20024;-79
2024/01/09 06:51:12;;;;;;;5.63;3.13;;;-4.30;99.90;;;;;;6238253;23;20267;-80
2024/01/09 06:53:38;;;;;;;8.55;3.33;;;-4.30;99.90;;;;;;6239200;23;20267;-81
2024/01/09 06:56:05;;;;;;;6.05;3.10;;;-4.30;99.90;;;;;;6212594;23;20019;-81
2024/01/09 06:58:31;;;;;;;5.20;3.00;;;-4.30;99.90;;;;;;6239479;23;20020;-80
2024/01/09 07:00:57;;;;;;;8.95;3.38;;;-4.30;99.90;;;;;;6240613;23;20095;-79
2024/01/09 07:03:22;;;;;;;6.13;3.35;;;-4.30;99.90;;;;;;6213028;23;20012;-81
2024/01/09 07:05:48;;;;;;;6.28;3.10;;;-4.40;99.90;;;;;;6240136;23;20074;-82
2024/01/09 07:08:14;;;;;;;5.38;3.50;;;-4.40;99.90;;;;;;6239506;23;20062;-82
2024/01/09 07:10:39;;;;;;;6.93;3.40;;;-4.40;99.90;;;;;;6238066;23;20020;-81
2024/01/09 07:13:05;;;;;;;6.32;3.40;;;-4.30;99.90;;;;;;6238423;23;20451;-82
2024/01/09 07:15:30;;;;;;;5.60;3.30;;;-4.40;99.90;;;;;;6238708;23;20221;-81
2024/01/09 07:17:56;;;;;;;5.60;3.35;;;-4.40;99.90;;;;;;6238662;23;20012;-81
2024/01/09 07:20:22;;;;;;;6.35;3.05;;;-4.40;99.90;;;;;;6238874;23;20019;-81
2024/01/09 07:22:48;;;;;;;6.33;3.53;;;-4.40;99.90;;;;;;6239133;23;20023;-81
2024/01/09 07:25:14;;;;;;;5.80;3.58;;;-4.40;99.90;;;;;;6238094;23;20243;-81
2024/01/09 07:27:40;;;;;;;;;;;-4.40;99.90;;;;;;6240607;23;20023;-80
2024/01/09 07:30:07;;;;;;;7.28;4.07;;;-4.40;99.90;;;;;;6240526;23;19915;-81
2024/01/09 07:32:33;;;;;;;5.85;3.08;;;-4.40;99.90;;;;;;6213211;23;20019;-81
2024/01/09 07:34:59;;;;;;;5.53;2.70;;;-4.40;99.90;;;;;;6237623;23;20016;-81
2024/01/09 07:37:24;;;;;;;6.25;3.45;;;-4.30;99.90;;;;;;6238205;23;20047;-80
2024/01/09 07:39:50;;;;;;;6.28;3.50;;;-4.40;99.90;;;;;;6237616;23;20012;-83
2024/01/09 07:42:16;;;;;;;6.45;3.03;;;-4.40;99.90;;;;;;6238606;23;20012;-81
2024/01/09 07:44:41;;;;;;;6.40;3.40;;;-4.30;99.90;;;;;;6240541;23;20012;-81
2024/01/09 07:47:11;;;;;;;5.93;2.67;;;-4.30;99.90;;;;;;6238851;23;20357;-83
2024/01/09 07:49:38;;;;;;;6.47;3.45;;;-4.30;99.90;;;;;;6240753;23;20475;-82
2024/01/09 07:52:04;;;;;;;7.60;3.38;;;-4.30;99.90;;;;;;6238807;23;20327;-82
2024/01/09 07:54:30;;;;;;;5.55;3.38;;;-4.40;99.90;;;;;;6238012;23;20061;-82
2024/01/09 07:56:56;;;;;;;6.00;3.47;;;-4.40;99.90;;;;;;6240141;23;20044;-82
2024/01/09 07:59:22;;;;;;;6.07;3.30;;;-4.40;99.90;;;;;;6213667;23;20042;-82
2024/01/09 08:01:54;;;;;;;5.85;2.83;;;-4.40;99.90;;;;;;6240669;23;20453;-83
2024/01/09 08:04:22;;;;;;;8.55;3.47;;;-4.40;99.90;;;;;;6240064;23;20012;-82
2024/01/09 08:06:50;;;;;;;5.85;3.33;;;-4.40;99.90;;;;;;6238027;23;20039;-82
2024/01/09 08:09:17;;;;;;;6.68;4.03;;;-4.40;99.90;;;;;;6237601;23;20187;-82
2024/01/09 08:11:43;;;;;;;9.65;3.60;;;-4.40;99.90;;;;;;6240176;23;20449;-83
2024/01/09 08:14:09;;;;;;;5.68;3.10;;;-4.40;99.90;;;;;;6238342;23;20020;-82
2024/01/09 08:16:34;;;;;;;6.90;3.60;;;-4.40;99.90;;;;;;6238762;23;20307;-82
2024/01/09 08:19:00;;;;;;;6.00;3.20;;;-4.30;99.90;;;;;;6238826;23;20259;-82
2024/01/09 08:21:26;;;;;;;7.47;3.58;;;-4.40;99.90;;;;;;6240980;23;20239;-83
2024/01/09 08:23:52;;;;;;;7.50;3.70;;;-4.30;99.90;;;;;;6239215;23;20022;-83
2024/01/09 08:26:17;;;;;;;6.72;3.47;;;-4.40;99.90;;;;;;6238041;23;20091;-83
2024/01/09 08:28:43;;;;;;;5.82;3.50;;;-4.30;99.90;;;;;;6238608;23;20016;-83
2024/01/09 08:31:08;;;;;;;6.95;3.83;;;-4.30;99.90;;;;;;6238566;23;20020;-83
2024/01/09 08:33:34;;;;;;;7.57;3.95;;;-4.20;99.90;;;;;;6238660;23;20012;-82
2024/01/09 08:36:01;;;;;;;6.28;3.20;;;-4.20;99.90;;;;;;6238487;23;20012;-82
2024/01/09 08:38:27;;;;;;;6.25;2.90;;;-4.10;99.90;;;;;;6238308;23;20368;-82
2024/01/09 08:40:55;;;;;;;6.00;3.85;;;-4.10;99.90;;;;;;6238313;23;20016;-82
2024/01/09 08:43:22;;;;;;;8.50;4.15;;;-4.10;99.90;;;;;;6211957;23;20012;-82
2024/01/09 08:45:48;;;;;;;7.43;3.80;;;-4.00;99.90;;;;;;6238663;23;20011;-82
2024/01/09 08:48:14;;;;;;;6.60;3.35;;;-4.00;99.90;;;;;;6215276;23;20008;-82
2024/01/09 08:50:40;;;;;;;5.43;2.50;;;-4.00;99.90;;;;;;6241084;23;20016;-81
2024/01/09 08:53:06;;;;;;;7.80;3.58;;;-4.00;99.90;;;;;;6240366;23;20012;-82
2024/01/09 08:55:32;;;;;;;7.57;3.35;;;-3.90;99.90;;;;;;6215646;23;20065;-82
2024/01/09 08:57:57;;;;;;;5.10;2.90;;;-3.90;99.90;;;;;;6240196;23;20020;-82
2024/01/09 09:00:23;;;;;;;7.10;3.80;;;-3.80;99.90;;;;;;6240589;23;20532;-81
2024/01/09 09:02:49;;;;;;;5.60;3.33;;;-3.80;99.90;;;;;;6215132;23;20027;-80
2024/01/09 09:05:14;;;;;;;7.40;3.47;;;-3.80;99.90;;;;;;6239692;23;20273;-81
2024/01/09 09:07:40;;;;;;;9.82;3.78;;;-3.80;99.90;;;;;;6238618;23;20023;-81
2024/01/09 09:10:06;;;;;;;5.47;3.10;;;-3.70;99.90;;;;;;6238810;23;20032;-81
2024/01/09 09:12:33;;;;;;;6.55;3.60;;;-3.70;99.90;;;;;;6239988;23;20012;-81
2024/01/09 09:14:59;;;;;;;5.68;3.38;;;-3.70;99.90;;;;;;6242029;23;20128;-81
2024/01/09 09:17:25;;;;;;;6.05;3.42;;;-3.60;99.90;;;;;;6240592;23;20485;-82
2024/01/09 09:19:50;;;;;;;6.78;3.58;;;-3.60;99.90;;;;;;6240448;23;20073;-82
2024/01/09 09:22:16;;;;;;;5.90;3.37;;;-3.50;99.90;;;;;;6239699;23;20004;-81
2024/01/09 09:24:42;;;;;;;6.45;3.47;;;-3.50;99.90;;;;;;6214827;23;20016;-81
2024/01/09 09:27:08;;;;;;;7.80;3.78;;;-3.40;99.90;;;;;;6241667;23;20016;-82
2024/01/09 09:29:33;;;;;;;5.95;3.17;;;-3.40;99.90;;;;;;6240046;23;20337;-82
2024/01/09 09:31:59;;;;;;;6.07;3.17;;;-3.30;99.90;;;;;;6241645;23;20433;-81
2024/01/09 09:34:25;;;;;;;4.75;2.35;;;-3.30;99.90;;;;;;6240675;23;20008;-82
2024/01/09 09:36:50;;;;;;;6.07;3.10;;;-3.30;99.90;;;;;;6237898;23;20023;-81
2024/01/09 09:39:17;;;;;;;5.28;2.97;;;-3.20;99.90;;;;;;6240564;23;20305;-82
2024/01/09 09:41:44;;;;;;;5.10;2.97;;;-3.20;99.90;;;;;;6241714;23;20024;-81
2024/01/09 09:44:14;;;;;;;6.20;3.10;;;-3.10;99.90;;;;;;6241128;23;20062;-84
2024/01/09 09:46:41;;;;;;;6.60;3.25;;;-3.00;99.90;;;;;;6240659;23;20039;-84
2024/01/09 09:49:09;;;;;;;5.97;2.90;;;-2.90;99.90;;;;;;6240410;23;20020;-84
2024/01/09 09:51:35;;;;;;;4.93;2.92;;;-2.90;99.90;;;;;;6240184;23;20476;-84
2024/01/09 09:54:02;;;;;;;5.35;2.97;;;-2.90;99.90;;;;;;6240888;23;20016;-84
2024/01/09 09:56:28;;;;;;;5.18;3.03;;;-2.80;99.90;;;;;;6240194;23;20085;-84
2024/01/09 09:58:54;;;;;;;4.95;2.80;;;-2.70;99.90;;;;;;6241794;23;20467;-84
2024/01/09 10:01:22;;;;;;;7.05;2.97;;;-2.70;99.90;;;;;;6240190;23;20024;-84
2024/01/09 10:04:13;;;;;;;5.45;2.80;;;-2.70;99.90;;;;;;6241950;23;20009;-83
2024/01/09 10:06:44;;;;;;;4.68;2.75;;;-2.70;99.90;;;;;;6239902;23;20024;-82
2024/01/09 10:09:14;;;;;;;4.63;2.70;;;-2.60;99.00;;;;;;6239604;23;20074;-82
2024/01/09 10:11:39;;;;;;;5.10;2.78;;;-2.60;75.70;;;;;;6239441;23;20016;-83
2024/01/09 10:14:09;;;;;;;4.43;2.42;;;-2.50;31.30;;;;;;6240077;23;20415;-83
2024/01/09 10:16:56;;;;;;;6.10;2.40;;;-2.50;1.00;;;;;;6239877;23;20012;-82
2024/01/09 10:19:23;;;;;;;3.85;2.17;;;-2.40;99.90;;;;;;6239659;23;20064;-82
2024/01/09 10:21:51;;;;;;;4.75;2.63;;;-2.40;99.90;;;;;;6214593;23;20020;-82
2024/01/09 10:24:17;;;;;;;3.42;2.05;;;-2.30;99.90;;;;;;6214746;23;20038;-83
2024/01/09 10:26:43;;;;;;;2.85;1.98;;;-2.30;99.90;;;;;;6239454;23;20129;-82
2024/01/09 10:29:13;;;;;;;4.88;2.30;;;-2.20;99.90;;;;;;6239776;23;20031;-82
2024/01/09 10:31:42;;;;;;;3.40;2.25;;;-2.20;34.30;;;;;;6214409;23;20284;-83
2024/01/09 10:34:08;;;;;;;4.05;2.25;;;-2.10;1.00;;;;;;6239369;23;20515;-82
2024/01/09 10:36:34;;;;;;;4.40;2.40;;;-2.10;1.00;;;;;;6240317;23;20016;-82
2024/01/09 10:39:04;;;;;;;2.97;1.80;;;-2.00;1.00;;;;;;6239937;23;20012;-83
2024/01/09 10:41:30;;;;;;;3.90;2.05;;;-2.00;1.00;;;;;;6239646;23;20306;-82
2024/01/09 10:43:56;;;;;;;5.30;2.17;;;-1.90;58.90;;;;;;6240160;23;20016;-83
2024/01/09 10:46:23;;;;;;;4.65;1.98;;;-1.80;10.40;;;;;;6239545;23;20344;-83
2024/01/09 10:48:51;;;;;;;4.40;2.20;;;-1.80;99.90;;;;;;6239490;23;20058;-83
2024/01/09 10:51:18;;;;;;;3.42;2.10;;;-1.60;99.90;;;;;;6239319;23;20021;-82
2024/01/09 10:53:47;;;;;;;3.38;2.15;;;-1.40;99.90;;;;;;6239658;23;20388;-82
2024/01/09 10:56:17;;;;;;;3.30;2.10;;;-1.20;1.00;;;;;;6239203;23;20012;-82
2024/01/09 10:58:48;;;;;;;3.70;2.00;;;-1.00;99.90;;;;;;6240643;23;20016;-83
2024/01/09 11:01:14;;;;;;;3.50;1.95;;;-0.90;99.90;;;;;;6241949;23;20023;-83
2024/01/09 11:03:40;;;;;;;3.30;1.70;;;-0.80;12.40;;;;;;6239136;23;20017;-83
2024/01/09 11:06:07;;;;;;;2.80;2.05;;;-0.60;63.90;;;;;;6239638;23;20022;-83
2024/01/09 11:08:36;;;;;;;4.80;2.05;;;-0.30;99.90;;;;;;6238670;23;20019;-83
2024/01/09 11:11:12;;;;;;;5.57;2.15;;;-0.10;28.40;;;;;;6236539;23;20061;-82
2024/01/09 11:13:46;;;;;;;3.13;1.90;;;-0.10;1.00;;;;;;6239444;23;20016;-82
2024/01/09 11:16:15;;;;;;;2.45;1.70;;;0.00;99.90;;;;;;6213928;23;20099;-83
2024/01/09 11:18:43;;;;;;;3.08;1.95;;;0.00;99.90;;;;;;6239014;23;20386;-82
2024/01/09 11:21:11;;;;;;;5.45;2.03;;;0.10;99.90;;;;;;6214120;23;20063;-83
2024/01/09 11:23:56;;;;;;;3.97;2.17;;;0.10;99.90;;;;;;6241247;23;20020;-82
2024/01/09 11:26:22;;;;;;;4.03;2.15;;;0.20;99.90;;;;;;6213482;23;20424;-83
2024/01/09 11:28:48;;;;;;;2.65;1.90;;;0.20;99.90;;;;;;6239211;23;20030;-82
2024/01/09 11:31:20;;;;;;;4.38;1.90;;;0.40;99.90;;;;;;6238608;23;20023;-82
2024/01/09 11:33:47;;;;;;;3.28;2.15;;;0.50;99.90;;;;;;6238959;23;20027;-82
2024/01/09 11:36:26;;;;;;;3.70;2.20;;;0.60;99.90;;;;;;6238703;23;20013;-82
2024/01/09 11:38:53;;;;;;;3.63;2.13;;;0.50;92.80;;;;;;6238454;23;20016;-83
2024/01/09 11:41:21;;;;;;;4.43;2.00;;;0.70;99.90;;;;;;6237837;23;20012;-83
2024/01/09 11:44:03;;;;;;;4.53;2.30;;;0.80;99.90;;;;;;6240121;23;20019;-82
2024/01/09 11:46:34;;;;;;;4.45;2.40;;;0.90;99.90;;;;;;6239601;23;20016;-86
2024/01/09 11:49:01;;;;;;;3.78;2.13;;;0.90;99.90;;;;;;6239557;23;20019;-80
2024/01/09 11:51:29;;;;;;;3.13;1.90;;;0.90;1.00;;;;;;6238586;23;20012;-82
2024/01/09 11:53:58;;;;;;;6.38;2.60;;;0.80;1.00;;;;;;6238744;23;20079;-81
2024/01/09 11:56:24;;;;;;;3.20;1.80;;;0.90;1.00;;;;;;6236703;23;20523;-82
2024/01/09 11:58:52;;;;;;;3.70;2.22;;;0.90;1.00;;;;;;6212544;23;20105;-82
2024/01/09 12:01:22;;;;;;;3.35;2.10;;;1.10;1.00;;;;;;6238208;23;20008;-82
2024/01/09 12:03:57;;;;;;;3.03;1.70;;;1.00;1.00;;;;;;6240815;23;20086;-82
2024/01/09 12:06:25;;;;;;;3.58;2.10;;;1.00;1.00;;;;;;6236576;23;20012;-82
2024/01/09 12:08:52;;;;;;;4.38;2.30;;;1.00;1.00;;;;;;6210329;23;20020;-82
2024/01/09 12:11:18;;;;;;;4.32;1.75;;;1.00;1.00;;;;;;6235026;23;20344;-83
2024/01/09 12:13:44;;;;;;;3.20;2.10;;;1.00;1.00;;;;;;6236007;23;20020;-82
2024/01/09 12:16:17;;;;;;;;;;;1.20;1.00;;;;;;6238584;23;20281;-82
2024/01/09 12:18:55;;;;;;;4.43;2.22;;;1.20;1.00;;;;;;6238235;23;19938;-83
2024/01/09 12:21:24;;;;;;;2.88;1.83;;;1.10;99.90;;;;;;6212817;23;20046;-83
2024/01/09 12:23:50;;;;;;;4.38;2.10;;;1.10;99.90;;;;;;6240506;22;20016;-83
2024/01/09 12:26:19;;;;;;;4.05;2.30;;;1.10;99.90;;;;;;6240293;23;20009;-82
2024/01/09 12:28:46;;;;;;;2.40;1.92;;;1.20;99.90;;;;;;6238103;23;20041;-83
2024/01/09 12:31:12;;;;;;;4.53;2.40;;;1.10;99.90;;;;;;6237987;23;20198;-81
2024/01/09 12:33:38;;;;;;;3.72;2.20;;;1.20;99.90;;;;;;6238122;23;20414;-82
2024/01/09 12:36:04;;;;;;;3.17;2.13;;;1.30;99.90;;;;;;6212885;23;20093;-81
2024/01/09 12:38:30;;;;;;;2.70;1.90;;;1.40;99.90;;;;;;6236419;23;20111;-82
2024/01/09 12:41:04;;;;;;;3.90;2.30;;;1.40;99.90;;;;;;6235718;23;20015;-81
2024/01/09 12:43:31;;;;;;;5.07;2.53;;;1.30;99.90;;;;;;6210411;23;20026;-81
2024/01/09 12:45:59;;;;;;;3.97;2.47;;;1.30;1.00;;;;;;6210432;23;20016;-82
2024/01/09 12:48:26;;;;;;;5.13;2.72;;;1.40;1.00;;;;;;6236710;23;20050;-82